createdAt,value
2019-01-20T00:00:49.872Z,17.10
2019-01-20T00:03:16.134Z,15.83
2019-01-20T00:05:42.239Z,16.52
2019-01-20T00:08:08.272Z,13.75
2019-01-20T00:10:42.311Z,14.83
2019-01-20T00:13:08.761Z,12.53
2019-01-20T00:15:37.463Z,19.07
2019-01-20T00:18:09.576Z,15.55
2019-01-20T00:20:36.770Z,16.23
2019-01-20T00:23:02.971Z,15.50
2019-01-20T00:25:31.223Z,16.07
2019-01-20T00:27:57.407Z,20.08
2019-01-20T00:30:23.676Z,14.15
2019-01-20T00:32:49.744Z,18.05
2019-01-20T00:35:29.040Z,14.75
2019-01-20T00:38:02.075Z,17.35
2019-01-20T00:40:29.198Z,18.50
2019-01-20T00:42:55.219Z,17.65
2019-01-20T00:45:22.149Z,12.03
2019-01-20T00:47:48.189Z,12.80
2019-01-20T00:50:15.542Z,16.93
2019-01-20T00:52:41.876Z,13.28
2019-01-20T00:55:11.256Z,16.15
2019-01-20T00:57:38.301Z,16.35
2019-01-20T01:00:13.966Z,19.17
2019-01-20T01:02:40.532Z,18.92
2019-01-20T01:05:06.727Z,15.10
2019-01-20T01:07:32.793Z,17.60
2019-01-20T01:09:58.856Z,15.88
2019-01-20T01:12:25.932Z,15.20
2019-01-20T01:14:51.957Z,17.95
2019-01-20T01:17:18.098Z,15.83
2019-01-20T01:19:50.179Z,15.80
2019-01-20T01:22:16.354Z,16.02
2019-01-20T01:24:42.495Z,16.77
2019-01-20T01:27:09.645Z,16.07
2019-01-20T01:29:35.783Z,14.43
2019-01-20T01:32:03.053Z,15.70
2019-01-20T01:34:30.223Z,13.40
2019-01-20T01:36:57.475Z,16.27
2019-01-20T01:39:24.634Z,13.62
2019-01-20T01:41:50.828Z,15.58
2019-01-20T01:44:16.945Z,14.33
2019-01-20T01:46:44.047Z,20.25
2019-01-20T01:49:11.179Z,12.85
2019-01-20T01:51:37.284Z,18.95
2019-01-20T01:54:05.418Z,13.45
2019-01-20T01:56:31.552Z,18.48
2019-01-20T01:58:58.630Z,16.27
2019-01-20T02:01:25.779Z,17.67
2019-01-20T02:03:52.897Z,11.60
2019-01-20T02:06:19.063Z,17.65
2019-01-20T02:08:52.025Z,15.43
2019-01-20T02:11:22.211Z,13.32
2019-01-20T02:13:48.308Z,24.67
2019-01-20T02:16:14.402Z,12.03
2019-01-20T02:18:41.414Z,17.23
2019-01-20T02:21:08.789Z,14.28
2019-01-20T02:23:34.810Z,21.17
2019-01-20T02:26:03.052Z,13.48
2019-01-20T02:28:30.131Z,13.90
2019-01-20T02:30:56.231Z,17.32
2019-01-20T02:33:22.319Z,15.30
2019-01-20T02:35:48.369Z,20.05
2019-01-20T02:38:20.161Z,16.82
2019-01-20T02:40:47.235Z,16.93
2019-01-20T02:43:14.377Z,14.98
2019-01-20T02:45:40.505Z,17.67
2019-01-20T02:48:10.616Z,18.32
2019-01-20T02:50:37.767Z,15.30
2019-01-20T02:53:03.913Z,12.43
2019-01-20T02:55:31.977Z,13.38
2019-01-20T02:57:58.010Z,16.00
2019-01-20T03:00:25.353Z,17.95
2019-01-20T03:02:55.454Z,14.00
2019-01-20T03:05:21.998Z,12.85
2019-01-20T03:07:48.184Z,12.88
2019-01-20T03:10:21.138Z,16.23
2019-01-20T03:12:47.151Z,13.95
2019-01-20T03:15:13.685Z,13.85
2019-01-20T03:17:42.104Z,16.50
2019-01-20T03:20:20.130Z,19.90
2019-01-20T03:22:46.471Z,14.43
2019-01-20T03:25:15.822Z,18.80
2019-01-20T03:27:45.286Z,16.45
2019-01-20T03:30:16.656Z,13.50
2019-01-20T03:32:42.693Z,16.17
2019-01-20T03:35:12.038Z,22.50
2019-01-20T03:37:42.188Z,15.30
2019-01-20T03:40:11.556Z,15.80
2019-01-20T03:42:38.865Z,13.68
2019-01-20T03:45:08.756Z,14.47
2019-01-20T03:47:40.925Z,15.72
2019-01-20T03:50:12.822Z,13.30
2019-01-20T03:52:44.783Z,15.03
2019-01-20T03:55:14.498Z,16.02
2019-01-20T03:57:40.592Z,15.68
2019-01-20T04:00:20.877Z,15.03
2019-01-20T04:02:49.052Z,19.42
2019-01-20T04:05:22.313Z,18.10
2019-01-20T04:07:49.798Z,24.87
2019-01-20T04:10:17.470Z,14.80
2019-01-20T04:12:43.585Z,14.78
2019-01-20T04:15:11.909Z,13.62
2019-01-20T04:17:39.291Z,28.27
2019-01-20T04:20:07.417Z,17.32
2019-01-20T04:22:35.545Z,16.32
2019-01-20T04:25:08.532Z,14.70
2019-01-20T04:27:42.455Z,15.55
2019-01-20T04:30:11.180Z,17.52
2019-01-20T04:32:39.490Z,17.27
2019-01-20T04:35:07.774Z,13.30
2019-01-20T04:37:35.009Z,14.53
2019-01-20T04:40:13.730Z,14.60
2019-01-20T04:42:45.735Z,18.12
2019-01-20T04:45:16.982Z,16.07
2019-01-20T04:47:43.418Z,19.27
2019-01-20T04:50:19.474Z,26.27
2019-01-20T04:52:47.623Z,15.98
2019-01-20T04:55:14.157Z,16.00
2019-01-20T04:57:43.103Z,17.40
2019-01-20T05:00:12.542Z,15.80
2019-01-20T05:02:46.615Z,18.77
2019-01-20T05:05:13.195Z,27.17
2019-01-20T05:07:41.383Z,17.32
2019-01-20T05:10:13.682Z,17.57
2019-01-20T05:12:43.768Z,15.43
2019-01-20T05:15:15.809Z,22.40
2019-01-20T05:17:44.318Z,21.23
2019-01-20T05:20:11.142Z,18.20
2019-01-20T05:22:37.140Z,16.95
2019-01-20T05:25:07.203Z,14.93
2019-01-20T05:27:34.411Z,17.52
2019-01-20T05:30:02.749Z,16.60
2019-01-20T05:32:28.858Z,20.10
2019-01-20T05:34:56.915Z,16.30
2019-01-20T05:37:27.615Z,21.50
2019-01-20T05:39:54.756Z,14.45
2019-01-20T05:42:22.202Z,17.87
2019-01-20T05:44:49.726Z,20.20
2019-01-20T05:47:23.930Z,18.12
2019-01-20T05:49:50.056Z,19.07
2019-01-20T05:52:16.159Z,14.25
2019-01-20T05:54:43.646Z,15.45
2019-01-20T05:57:09.828Z,16.02
2019-01-20T05:59:37.768Z,15.28
2019-01-20T06:02:08.908Z,18.75
2019-01-20T06:04:35.928Z,24.85
2019-01-20T06:07:03.669Z,19.15
2019-01-20T06:09:29.777Z,17.87
2019-01-20T06:12:10.981Z,17.00
2019-01-20T06:14:39.093Z,15.43
2019-01-20T06:17:19.459Z,18.75
2019-01-20T06:19:51.389Z,19.98
2019-01-20T06:22:17.510Z,16.27
2019-01-20T06:24:43.947Z,19.05
2019-01-20T06:27:11.729Z,19.23
2019-01-20T06:29:37.764Z,18.30
2019-01-20T06:32:04.093Z,15.90
2019-01-20T06:34:32.464Z,14.95
2019-01-20T06:36:58.562Z,15.63
2019-01-20T06:39:24.687Z,14.20
2019-01-20T06:41:52.799Z,19.65
2019-01-20T06:44:19.854Z,17.25
2019-01-20T06:46:45.976Z,18.82
2019-01-20T06:49:13.053Z,20.75
2019-01-20T06:51:41.155Z,19.23
2019-01-20T06:54:07.260Z,16.73
2019-01-20T06:56:42.829Z,13.88
2019-01-20T06:59:17.019Z,16.07
2019-01-20T07:01:44.094Z,20.37
2019-01-20T07:04:12.270Z,15.78
2019-01-20T07:06:38.343Z,15.20
2019-01-20T07:09:05.066Z,16.52
2019-01-20T07:11:32.087Z,15.75
2019-01-20T07:13:59.231Z,18.42
2019-01-20T07:16:28.546Z,23.27
2019-01-20T07:18:55.753Z,18.73
2019-01-20T07:21:21.804Z,21.05
2019-01-20T07:23:54.201Z,17.02
2019-01-20T07:26:20.311Z,21.65
2019-01-20T07:28:54.334Z,22.90
2019-01-20T07:31:20.437Z,17.82
2019-01-20T07:33:46.480Z,21.62
2019-01-20T07:36:16.556Z,19.30
2019-01-20T07:38:44.870Z,22.93
2019-01-20T07:41:10.900Z,16.02
2019-01-20T07:43:38.005Z,17.15
2019-01-20T07:46:04.186Z,21.52
2019-01-20T07:48:30.223Z,19.40
2019-01-20T07:50:59.511Z,17.75
2019-01-20T07:53:26.621Z,19.42
2019-01-20T07:55:53.810Z,20.80
2019-01-20T07:58:20.012Z,15.70
2019-01-20T08:00:47.100Z,21.30
2019-01-20T08:03:14.317Z,18.67
2019-01-20T08:06:02.360Z,21.57
2019-01-20T08:08:31.869Z,21.55
2019-01-20T08:11:01.613Z,16.50
2019-01-20T08:13:35.871Z,20.43
2019-01-20T08:16:03.260Z,17.07
2019-01-20T08:18:29.455Z,18.12
2019-01-20T08:21:11.051Z,18.02
2019-01-20T08:23:37.870Z,21.50
2019-01-20T08:26:04.979Z,19.77
2019-01-20T08:28:38.618Z,20.48
2019-01-20T08:31:07.757Z,18.92
2019-01-20T08:33:44.787Z,18.98
2019-01-20T08:36:17.963Z,16.37
2019-01-20T08:38:49.969Z,24.25
2019-01-20T08:41:18.237Z,18.87
2019-01-20T08:43:44.295Z,22.62
2019-01-20T08:46:14.240Z,19.20
2019-01-20T08:48:40.611Z,23.70
2019-01-20T08:51:14.544Z,23.87
2019-01-20T08:53:45.198Z,27.55
2019-01-20T08:56:17.263Z,23.67
2019-01-20T08:58:43.309Z,21.33
2019-01-20T09:01:12.041Z,23.12
2019-01-20T09:03:38.102Z,18.45
2019-01-20T09:06:04.275Z,22.13
2019-01-20T09:08:31.755Z,22.90
2019-01-20T09:11:08.888Z,22.25
2019-01-20T09:13:44.011Z,20.97
2019-01-20T09:16:11.095Z,22.62
2019-01-20T09:18:38.291Z,27.15
2019-01-20T09:21:05.173Z,22.45
2019-01-20T09:23:37.254Z,25.57
2019-01-20T09:26:04.661Z,20.80
2019-01-20T09:28:30.723Z,23.85
2019-01-20T09:30:57.541Z,28.77
2019-01-20T09:33:25.021Z,27.02
2019-01-20T09:35:57.710Z,27.90
2019-01-20T09:38:23.793Z,24.92
2019-01-20T09:40:51.013Z,26.40
2019-01-20T09:43:19.127Z,25.25
2019-01-20T09:45:48.862Z,24.18
2019-01-20T09:48:15.970Z,24.50
2019-01-20T09:50:42.118Z,32.93
2019-01-20T09:53:08.437Z,28.85
2019-01-20T09:55:34.605Z,26.95
2019-01-20T09:58:04.147Z,25.82
2019-01-20T10:00:34.210Z,26.95
2019-01-20T10:03:02.545Z,28.02
2019-01-20T10:05:39.005Z,25.40
2019-01-20T10:08:05.107Z,26.33
2019-01-20T10:10:32.392Z,27.82
2019-01-20T10:12:58.465Z,33.30
2019-01-20T10:15:24.638Z,31.45
2019-01-20T10:17:56.499Z,29.37
2019-01-20T10:20:31.361Z,31.02
2019-01-20T10:22:59.241Z,25.77
2019-01-20T10:25:25.349Z,24.52
2019-01-20T10:27:52.641Z,26.70
2019-01-20T10:30:34.642Z,33.88
2019-01-20T10:33:00.768Z,31.48
2019-01-20T10:35:42.826Z,31.77
2019-01-20T10:38:10.268Z,35.85
2019-01-20T10:40:39.520Z,22.73
2019-01-20T10:43:13.165Z,41.68
2019-01-20T10:45:41.301Z,30.72
2019-01-20T10:48:07.895Z,27.87
2019-01-20T10:50:34.087Z,32.83
2019-01-20T10:53:03.512Z,34.70
2019-01-20T10:55:31.998Z,33.53
2019-01-20T10:57:58.190Z,37.80
2019-01-20T11:00:30.590Z,59.58
2019-01-20T11:02:56.902Z,33.83
2019-01-20T11:05:25.078Z,30.77
2019-01-20T11:07:52.171Z,23.42
2019-01-20T11:10:20.469Z,35.03
2019-01-20T11:12:49.834Z,27.15
2019-01-20T11:15:17.118Z,26.77
2019-01-20T11:17:50.390Z,32.33
2019-01-20T11:20:22.731Z,29.95
2019-01-20T11:22:52.256Z,28.87
2019-01-20T11:25:27.443Z,28.57
2019-01-20T11:27:59.506Z,32.60
2019-01-20T11:30:25.606Z,32.17
2019-01-20T11:32:53.035Z,26.82
2019-01-20T11:35:19.327Z,26.52
2019-01-20T11:37:46.616Z,31.73
2019-01-20T11:40:13.748Z,27.58
2019-01-20T11:42:41.736Z,29.40
2019-01-20T11:45:17.799Z,31.65
2019-01-20T11:47:44.070Z,27.50
2019-01-20T11:50:11.544Z,28.35
2019-01-20T11:52:40.807Z,29.70
2019-01-20T11:55:10.622Z,28.87
2019-01-20T11:57:36.878Z,26.45
2019-01-20T12:00:17.406Z,28.20
2019-01-20T12:02:56.953Z,28.75
2019-01-20T12:05:23.374Z,29.77
2019-01-20T12:07:49.493Z,31.87
2019-01-20T12:10:16.872Z,29.48
2019-01-20T12:12:44.951Z,31.87
2019-01-20T12:15:17.285Z,29.67
2019-01-20T12:17:53.591Z,28.92
2019-01-20T12:20:23.694Z,29.37
2019-01-20T12:23:06.906Z,25.68
2019-01-20T12:25:34.102Z,32.95
2019-01-20T12:28:03.811Z,28.60
2019-01-20T12:30:42.155Z,38.83
2019-01-20T12:33:10.882Z,27.70
2019-01-20T12:35:37.084Z,28.90
2019-01-20T12:38:04.461Z,29.82
2019-01-20T12:40:49.929Z,30.45
2019-01-20T12:43:41.964Z,32.05
2019-01-20T12:46:15.391Z,26.10
2019-01-20T12:48:51.869Z,30.90
2019-01-20T12:51:28.751Z,29.07
2019-01-20T12:53:56.256Z,37.50
2019-01-20T12:56:31.253Z,30.45
2019-01-20T12:59:27.408Z,29.07
2019-01-20T13:01:53.708Z,36.15
2019-01-20T13:04:29.250Z,27.90
2019-01-20T13:07:01.640Z,33.80
2019-01-20T13:09:40.221Z,33.20
2019-01-20T13:12:07.405Z,34.88
2019-01-20T13:14:44.040Z,25.48
2019-01-20T13:17:11.051Z,29.12
2019-01-20T13:19:38.312Z,30.62
2019-01-20T13:22:18.624Z,28.38
2019-01-20T13:24:51.075Z,25.80
2019-01-20T13:27:21.349Z,23.55
2019-01-20T13:30:07.572Z,29.25
2019-01-20T13:32:49.231Z,30.15
2019-01-20T13:35:29.202Z,31.33
2019-01-20T13:38:08.997Z,32.28
2019-01-20T13:41:04.373Z,25.75
2019-01-20T13:43:35.343Z,27.50
2019-01-20T13:46:03.069Z,33.90
2019-01-20T13:48:38.202Z,31.73
2019-01-20T13:51:12.551Z,34.40
2019-01-20T13:53:39.811Z,24.43
2019-01-20T13:56:09.940Z,30.07
2019-01-20T13:58:46.997Z,26.15
2019-01-20T14:01:13.025Z,31.90
2019-01-20T14:03:39.359Z,26.33
2019-01-20T14:06:06.630Z,26.83
2019-01-20T14:08:32.980Z,29.77
2019-01-20T14:11:03.506Z,29.30
2019-01-20T14:13:29.733Z,26.60
2019-01-20T14:15:59.857Z,33.97
2019-01-20T14:18:31.903Z,27.33
2019-01-20T14:20:58.084Z,28.60
2019-01-20T14:23:37.573Z,27.20
2019-01-20T14:26:05.613Z,28.53
2019-01-20T14:28:42.088Z,27.87
2019-01-20T14:31:09.272Z,26.60
2019-01-20T14:33:40.510Z,25.97
2019-01-20T14:36:26.782Z,26.13
2019-01-20T14:39:10.417Z,29.23
2019-01-20T14:41:38.552Z,25.77
2019-01-20T14:44:04.948Z,26.40
2019-01-20T14:46:43.151Z,24.40
2019-01-20T14:49:18.910Z,25.60
2019-01-20T14:51:55.191Z,25.20
2019-01-20T14:54:27.549Z,26.40
2019-01-20T14:56:59.914Z,25.60
2019-01-20T14:59:27.115Z,26.13
2019-01-20T15:01:53.361Z,58.87
2019-01-20T15:04:23.432Z,41.35
2019-01-20T15:06:50.840Z,37.88
2019-01-20T15:09:17.203Z,57.75
2019-01-20T15:11:43.531Z,39.92
2019-01-20T15:14:09.728Z,33.90
2019-01-20T15:16:48.923Z,53.10
2019-01-20T15:19:15.202Z,62.27
2019-01-20T15:21:52.076Z,34.67
2019-01-20T15:24:31.035Z,60.55
2019-01-20T15:26:56.615Z,52.45
2019-01-20T15:29:26.844Z,52.10
2019-01-20T15:31:54.204Z,33.95
2019-01-20T15:34:20.554Z,33.55
2019-01-20T15:36:50.162Z,24.20
2019-01-20T15:39:31.847Z,23.90
2019-01-20T15:42:02.491Z,27.93
2019-01-20T15:44:40.722Z,26.15
2019-01-20T15:47:10.999Z,28.55
2019-01-20T15:49:45.687Z,26.62
2019-01-20T15:52:19.999Z,33.45
2019-01-20T15:54:51.347Z,29.42
2019-01-20T15:57:23.850Z,30.15
2019-01-20T15:59:55.406Z,29.72
2019-01-20T16:02:30.840Z,32.15
2019-01-20T16:05:06.449Z,32.15
2019-01-20T16:07:39.417Z,32.25
2019-01-20T16:10:09.415Z,27.58
2019-01-20T16:12:46.163Z,27.90
2019-01-20T16:15:16.135Z,33.15
2019-01-20T16:17:52.394Z,30.45
2019-01-20T16:20:18.840Z,32.70
2019-01-20T16:22:50.075Z,30.97
2019-01-20T16:25:32.047Z,34.45
2019-01-20T16:27:59.442Z,30.72
2019-01-20T16:30:48.645Z,28.27
2019-01-20T16:33:16.910Z,33.35
2019-01-20T16:35:56.795Z,31.40
2019-01-20T16:38:23.041Z,33.40
2019-01-20T16:40:49.208Z,33.28
2019-01-20T16:43:20.315Z,31.30
2019-01-20T16:45:46.671Z,28.47
2019-01-20T16:48:22.541Z,29.50
2019-01-20T16:50:54.585Z,32.75
2019-01-20T16:53:24.145Z,33.90
2019-01-20T16:55:58.413Z,32.98
2019-01-20T16:58:34.822Z,30.23
2019-01-20T17:01:04.016Z,35.20
2019-01-20T17:03:32.077Z,36.68
2019-01-20T17:05:59.298Z,34.27
2019-01-20T17:08:35.378Z,33.75
2019-01-20T17:11:03.759Z,34.18
2019-01-20T17:13:33.857Z,35.28
2019-01-20T17:16:01.198Z,41.40
2019-01-20T17:18:32.975Z,36.10
2019-01-20T17:21:11.478Z,32.78
2019-01-20T17:23:38.542Z,34.70
2019-01-20T17:26:06.979Z,40.40
2019-01-20T17:28:43.911Z,30.20
2019-01-20T17:31:16.046Z,33.28
2019-01-20T17:33:53.111Z,30.80
2019-01-20T17:36:25.744Z,34.33
2019-01-20T17:39:01.613Z,34.13
2019-01-20T17:41:36.036Z,35.10
2019-01-20T17:44:08.018Z,30.95
2019-01-20T17:46:35.226Z,33.90
2019-01-20T17:49:02.495Z,36.35
2019-01-20T17:51:29.388Z,33.38
2019-01-20T17:53:58.393Z,33.18
2019-01-20T17:56:26.614Z,35.45
2019-01-20T17:58:53.661Z,34.73
2019-01-20T18:01:25.807Z,33.00
2019-01-20T18:03:57.193Z,34.30
2019-01-20T18:06:25.693Z,36.95
2019-01-20T18:08:52.221Z,33.50
2019-01-20T18:11:18.626Z,38.75
2019-01-20T18:13:52.191Z,37.75
2019-01-20T18:16:19.535Z,39.88
2019-01-20T18:18:46.756Z,35.40
2019-01-20T18:21:23.928Z,35.78
2019-01-20T18:23:53.049Z,36.73
2019-01-20T18:26:20.305Z,34.43
2019-01-20T18:28:46.295Z,41.85
2019-01-20T18:31:15.555Z,41.42
2019-01-20T18:33:41.720Z,30.92
2019-01-20T18:36:08.181Z,35.83
2019-01-20T18:38:34.180Z,33.70
2019-01-20T18:41:06.135Z,32.73
2019-01-20T18:43:33.477Z,35.60
2019-01-20T18:46:18.918Z,35.52
2019-01-20T18:48:48.842Z,35.78
2019-01-20T18:51:18.272Z,33.78
2019-01-20T18:53:44.397Z,35.85
2019-01-20T18:56:18.624Z,32.45
2019-01-20T18:58:55.892Z,34.30
2019-01-20T19:01:29.088Z,33.20
2019-01-20T19:04:13.383Z,41.68
2019-01-20T19:06:42.716Z,34.45
2019-01-20T19:09:16.930Z,39.18
2019-01-20T19:11:47.264Z,39.50
2019-01-20T19:14:16.871Z,34.43
2019-01-20T19:16:45.075Z,37.85
2019-01-20T19:19:16.411Z,39.45
2019-01-20T19:21:43.744Z,37.95
2019-01-20T19:24:14.830Z,38.00
2019-01-20T19:26:51.324Z,44.20
2019-01-20T19:29:18.635Z,37.70
2019-01-20T19:31:53.894Z,38.28
2019-01-20T19:34:23.026Z,33.35
2019-01-20T19:36:52.356Z,37.50
2019-01-20T19:39:18.401Z,40.17
2019-01-20T19:41:44.631Z,40.23
2019-01-20T19:44:10.765Z,42.98
2019-01-20T19:46:38.141Z,39.65
2019-01-20T19:49:07.657Z,39.70
2019-01-20T19:51:36.918Z,38.60
2019-01-20T19:54:05.009Z,47.70
2019-01-20T19:56:31.215Z,41.77
2019-01-20T19:59:02.735Z,44.23
2019-01-20T20:01:32.819Z,42.73
2019-01-20T20:04:05.780Z,39.20
2019-01-20T20:06:33.030Z,39.20
2019-01-20T20:09:00.231Z,43.98
2019-01-20T20:11:26.494Z,39.95
2019-01-20T20:14:00.054Z,41.23
2019-01-20T20:16:26.281Z,40.38
2019-01-20T20:19:05.861Z,42.20
2019-01-20T20:21:44.584Z,43.15
2019-01-20T20:24:10.711Z,39.42
2019-01-20T20:26:44.084Z,38.17
2019-01-20T20:29:10.275Z,38.63
2019-01-20T20:31:36.505Z,49.40
2019-01-20T20:34:04.562Z,37.38
2019-01-20T20:36:30.798Z,39.80
2019-01-20T20:39:06.927Z,38.70
2019-01-20T20:41:39.273Z,46.70
2019-01-20T20:44:19.624Z,39.38
2019-01-20T20:46:49.834Z,40.80
2019-01-20T20:49:17.022Z,37.85
2019-01-20T20:51:46.587Z,39.00
2019-01-20T20:54:12.815Z,39.60
2019-01-20T20:56:39.231Z,41.18
2019-01-20T20:59:13.795Z,40.45
2019-01-20T21:01:42.917Z,40.35
2019-01-20T21:04:09.214Z,37.15
2019-01-20T21:06:35.454Z,44.33
2019-01-20T21:09:02.050Z,40.85
2019-01-20T21:11:28.264Z,40.98
2019-01-20T21:14:10.166Z,46.20
2019-01-20T21:16:37.945Z,43.83
2019-01-20T21:19:06.675Z,40.73
2019-01-20T21:21:47.641Z,47.95
2019-01-20T21:24:16.247Z,41.40
2019-01-20T21:26:44.637Z,43.52
2019-01-20T21:29:12.020Z,49.60
2019-01-20T21:31:45.412Z,45.23
2019-01-20T21:34:28.285Z,44.70
2019-01-20T21:37:06.489Z,44.15
2019-01-20T21:39:38.769Z,42.78
2019-01-20T21:42:06.203Z,47.03
2019-01-20T21:44:35.743Z,41.55
2019-01-20T21:47:16.342Z,48.80
2019-01-20T21:49:48.337Z,55.80
2019-01-20T21:52:18.768Z,121.20
2019-01-20T21:54:48.861Z,60.85
2019-01-20T21:57:30.134Z,37.45
2019-01-20T21:59:58.400Z,39.23
2019-01-20T22:02:28.764Z,44.65
2019-01-20T22:05:01.861Z,43.30
2019-01-20T22:07:28.183Z,35.75
2019-01-20T22:09:56.232Z,38.65
2019-01-20T22:12:32.125Z,44.00
2019-01-20T22:15:12.482Z,40.12
2019-01-20T22:17:41.681Z,41.75
2019-01-20T22:20:18.059Z,43.20
2019-01-20T22:22:49.271Z,32.50
2019-01-20T22:25:45.553Z,46.88
2019-01-20T22:28:17.979Z,49.35
2019-01-20T22:30:53.562Z,42.45
2019-01-20T22:33:29.652Z,40.00
2019-01-20T22:35:55.943Z,41.88
2019-01-20T22:38:23.409Z,44.65
2019-01-20T22:40:49.576Z,44.38
2019-01-20T22:43:16.761Z,36.23
2019-01-20T22:45:50.923Z,42.13
2019-01-20T22:48:17.478Z,37.10
2019-01-20T22:50:45.620Z,41.30
2019-01-20T22:53:19.167Z,36.28
2019-01-20T22:55:43.829Z,39.00
2019-01-20T22:58:10.750Z,33.63
2019-01-20T23:00:52.059Z,34.92
2019-01-20T23:03:30.829Z,36.77
2019-01-20T23:05:57.106Z,37.70
2019-01-20T23:08:24.290Z,38.73
2019-01-20T23:10:51.689Z,33.58
2019-01-20T23:13:17.981Z,33.73
2019-01-20T23:15:50.465Z,35.65
2019-01-20T23:18:20.184Z,33.30
2019-01-20T23:20:46.253Z,34.88
2019-01-20T23:23:12.611Z,29.32
2019-01-20T23:25:38.729Z,34.15
2019-01-20T23:28:05.830Z,36.98
2019-01-20T23:30:42.825Z,34.58
2019-01-20T23:33:08.860Z,37.25
2019-01-20T23:35:35.097Z,32.85
2019-01-20T23:38:01.199Z,35.50
2019-01-20T23:40:30.425Z,35.52
2019-01-20T23:43:03.484Z,35.55
2019-01-20T23:45:29.534Z,30.88
2019-01-20T23:48:10.173Z,33.90
2019-01-20T23:50:36.434Z,34.95
2019-01-20T23:53:02.777Z,36.40
2019-01-20T23:55:28.858Z,32.55
2019-01-20T23:57:54.894Z,32.85
